Howardville, New York
Current Conditions -  °F | °C
As of 12:54 PM on Saturday 25 Oct 2014 (Local Time) from KFZY Reporting Station
Scattered Clouds Scattered Clouds  
Wind Chill: 63°   Ceiling: Unl
Heat Index: 63°   Visibility: 10mi
Dew Point: 48°   Wind: 9mph
Humidity: 58%   Direction: 230°SW
Pressure: 29.67"   Gusts: NA
Location:  43.4945°N, 75.9612°W
Report Text: KFZY 251654Z AUTO 23008KT 10SM SCT037 17/09 A2967 RMK AO2 SLP047 T01720089
Loading
Personal Weather Stations






























Interactive Weather Map
Tropical Storm Tracking
New forecast layout! Learn more

10-Day Weather Forecast

Advertisements
Track Severe Weather on mobile